METAR Data
IDs: Format: Raw Decoded Include TAF

Data at: 1858 UTC 26 Sep 2021

LFPM 261830Z AUTO 20007KT CAVOK 17/16 Q1016